createdAt,value
2017-09-17T00:01:45.849Z,5.13
2017-09-17T00:04:12.795Z,4.30
2017-09-17T00:06:39.703Z,3.70
2017-09-17T00:09:06.688Z,4.13
2017-09-17T00:11:33.601Z,4.37
2017-09-17T00:14:01.262Z,3.93
2017-09-17T00:16:28.241Z,4.50
2017-09-17T00:18:55.204Z,4.60
2017-09-17T00:21:22.137Z,3.50
2017-09-17T00:23:49.085Z,5.33
2017-09-17T00:26:15.984Z,4.20
2017-09-17T00:28:42.995Z,3.50
2017-09-17T00:31:09.920Z,3.00
2017-09-17T00:33:36.921Z,3.50
2017-09-17T00:36:03.826Z,3.20
2017-09-17T00:38:30.724Z,3.17
2017-09-17T00:40:57.665Z,6.70
2017-09-17T00:43:24.560Z,3.67
2017-09-17T00:45:51.584Z,3.43
2017-09-17T00:48:18.507Z,3.40
2017-09-17T00:50:45.534Z,3.03
2017-09-17T00:53:12.532Z,4.03
2017-09-17T00:55:39.580Z,2.87
2017-09-17T00:58:06.520Z,4.07
2017-09-17T01:00:33.461Z,3.90
2017-09-17T01:03:00.435Z,3.17
2017-09-17T01:05:27.359Z,4.37
2017-09-17T01:07:54.248Z,3.80
2017-09-17T01:10:21.296Z,6.00
2017-09-17T01:12:48.254Z,4.13
2017-09-17T01:15:15.210Z,3.60
2017-09-17T01:17:42.151Z,4.20
2017-09-17T01:20:09.162Z,3.60
2017-09-17T01:22:36.041Z,3.50
2017-09-17T01:25:03.004Z,3.30
2017-09-17T01:27:30.049Z,3.53
2017-09-17T01:29:56.928Z,3.00
2017-09-17T01:32:23.801Z,3.60
2017-09-17T01:34:51.555Z,3.23
2017-09-17T01:37:18.442Z,3.33
2017-09-17T01:39:45.411Z,3.40
2017-09-17T01:42:12.296Z,2.80
2017-09-17T01:44:39.262Z,2.80
2017-09-17T01:47:06.155Z,3.60
2017-09-17T01:49:33.057Z,4.03
2017-09-17T01:51:59.993Z,3.03
2017-09-17T01:54:27.643Z,3.63
2017-09-17T01:56:55.336Z,2.30
2017-09-17T01:59:22.194Z,4.00
2017-09-17T02:01:49.159Z,2.70
2017-09-17T02:04:16.079Z,4.13
2017-09-17T02:06:43.022Z,3.30
2017-09-17T02:09:09.926Z,3.23
2017-09-17T02:11:36.850Z,2.93
2017-09-17T02:14:03.741Z,3.10
2017-09-17T02:16:31.389Z,3.03
2017-09-17T02:18:59.022Z,5.00
2017-09-17T02:21:26.021Z,3.27
2017-09-17T02:23:52.905Z,3.50
2017-09-17T02:26:19.796Z,3.70
2017-09-17T02:28:46.724Z,4.73
2017-09-17T02:31:13.668Z,4.30
2017-09-17T02:33:40.572Z,4.47
2017-09-17T02:36:07.485Z,5.40
2017-09-17T02:38:34.367Z,5.70
2017-09-17T02:41:01.401Z,4.33
2017-09-17T02:43:28.341Z,7.30
2017-09-17T02:45:55.216Z,5.73
2017-09-17T02:48:22.155Z,5.90
2017-09-17T02:50:49.077Z,4.37
2017-09-17T02:53:16.017Z,4.77
2017-09-17T02:55:42.903Z,3.33
2017-09-17T02:58:09.852Z,4.30
2017-09-17T03:00:36.748Z,3.60
2017-09-17T03:03:03.675Z,3.67
2017-09-17T03:05:30.625Z,4.23
2017-09-17T03:07:58.260Z,5.23
2017-09-17T03:10:25.157Z,3.30
2017-09-17T03:12:52.107Z,4.23
2017-09-17T03:15:18.971Z,4.10
2017-09-17T03:17:45.828Z,3.40
2017-09-17T03:20:12.783Z,3.23
2017-09-17T03:22:39.650Z,3.90
2017-09-17T03:25:06.555Z,3.50
2017-09-17T03:27:33.500Z,4.17
2017-09-17T03:30:00.442Z,3.67
2017-09-17T03:32:27.316Z,7.53
2017-09-17T03:34:54.288Z,4.80
2017-09-17T03:37:21.944Z,6.30
2017-09-17T03:39:48.872Z,6.00
2017-09-17T03:42:22.809Z,8.23
2017-09-17T03:44:50.525Z,7.33
2017-09-17T03:47:17.467Z,6.50
2017-09-17T03:49:44.439Z,7.50
2017-09-17T03:52:11.302Z,8.07
2017-09-17T03:54:38.233Z,7.60
2017-09-17T03:57:05.118Z,6.83
2017-09-17T03:59:32.119Z,7.30
2017-09-17T04:01:59.118Z,6.93
2017-09-17T04:04:26.057Z,5.33
2017-09-17T04:06:52.953Z,6.37
2017-09-17T04:09:19.863Z,6.40
2017-09-17T04:11:46.720Z,6.20
2017-09-17T04:14:13.654Z,4.80
2017-09-17T04:16:40.607Z,5.90
2017-09-17T04:19:07.549Z,5.10
2017-09-17T04:21:34.428Z,6.77
2017-09-17T04:24:01.388Z,5.67
2017-09-17T04:26:34.415Z,5.33
2017-09-17T04:29:02.848Z,7.30
2017-09-17T04:31:29.821Z,5.90
2017-09-17T04:33:56.735Z,6.17
2017-09-17T04:36:23.705Z,4.80
2017-09-17T04:38:50.577Z,4.80
2017-09-17T04:41:18.192Z,5.20
2017-09-17T04:43:45.145Z,4.80
2017-09-17T04:46:11.995Z,5.40
2017-09-17T04:48:38.895Z,5.00
2017-09-17T04:51:05.838Z,4.60
2017-09-17T04:53:32.793Z,5.83
2017-09-17T04:55:59.643Z,5.23
2017-09-17T04:58:26.519Z,6.00
2017-09-17T05:00:53.457Z,5.90
2017-09-17T05:03:20.380Z,7.63
2017-09-17T05:05:47.250Z,6.80
2017-09-17T05:08:14.252Z,6.70
2017-09-17T05:10:41.125Z,6.70
2017-09-17T05:13:07.991Z,7.03
2017-09-17T05:15:35.113Z,5.93
2017-09-17T05:18:01.976Z,5.23
2017-09-17T05:20:28.900Z,5.77
2017-09-17T05:22:55.764Z,5.63
2017-09-17T05:25:22.742Z,5.37
2017-09-17T05:27:49.623Z,4.97
2017-09-17T05:30:16.525Z,5.20
2017-09-17T05:32:43.443Z,5.27
2017-09-17T05:35:10.337Z,6.57
2017-09-17T05:37:38.087Z,5.57
2017-09-17T05:40:04.955Z,6.93
2017-09-17T05:42:32.555Z,6.33
2017-09-17T05:44:59.512Z,8.07
2017-09-17T05:47:26.418Z,9.53
2017-09-17T05:49:53.288Z,6.73
2017-09-17T05:52:20.244Z,7.10
2017-09-17T05:54:47.208Z,7.37
2017-09-17T05:57:14.066Z,5.47
2017-09-17T05:59:41.010Z,6.70
2017-09-17T06:02:10.383Z,6.53
2017-09-17T06:04:37.351Z,6.50
2017-09-17T06:07:19.113Z,6.33
2017-09-17T06:09:57.749Z,6.93
2017-09-17T06:12:26.327Z,7.43
2017-09-17T06:15:07.768Z,11.20
2017-09-17T06:17:48.975Z,7.10
2017-09-17T06:20:26.175Z,7.93
2017-09-17T06:23:09.817Z,6.23
2017-09-17T06:25:47.587Z,9.33
2017-09-17T06:28:17.832Z,7.83
2017-09-17T06:36:27.172Z,8.53
2017-09-17T06:39:09.527Z,8.00
2017-09-17T06:41:41.413Z,7.93
2017-09-17T06:44:08.837Z,15.53
2017-09-17T06:46:35.776Z,15.47
2017-09-17T06:49:05.206Z,10.10
2017-09-17T06:51:33.215Z,6.97
2017-09-17T06:54:00.906Z,6.37
2017-09-17T06:56:27.796Z,6.17
2017-09-17T06:58:57.877Z,6.57
2017-09-17T07:01:25.563Z,6.03
2017-09-17T07:03:55.537Z,5.43
2017-09-17T07:06:24.300Z,6.60
2017-09-17T07:08:55.726Z,6.50
2017-09-17T07:11:23.041Z,7.13
2017-09-17T07:13:53.075Z,7.53
2017-09-17T07:16:22.047Z,7.33
2017-09-17T07:18:49.827Z,6.50
2017-09-17T07:21:16.799Z,6.50
2017-09-17T07:23:47.016Z,7.40
2017-09-17T07:26:19.183Z,8.03
2017-09-17T07:28:47.442Z,7.20
2017-09-17T07:31:15.477Z,6.63
2017-09-17T07:33:46.642Z,6.07
2017-09-17T07:36:27.474Z,7.03
2017-09-17T07:39:09.479Z,7.13
2017-09-17T07:41:50.581Z,7.30
2017-09-17T07:44:19.404Z,7.30
2017-09-17T07:46:46.282Z,6.57
2017-09-17T07:49:13.254Z,6.60
2017-09-17T07:51:42.145Z,6.80
2017-09-17T07:54:09.132Z,6.83
2017-09-17T07:56:36.096Z,6.73
2017-09-17T07:59:15.595Z,8.37
2017-09-17T08:01:44.744Z,8.00
2017-09-17T08:04:22.394Z,11.13
2017-09-17T08:06:53.062Z,10.90
2017-09-17T08:09:31.220Z,10.60
2017-09-17T08:12:06.095Z,11.10
2017-09-17T08:14:33.461Z,11.07
2017-09-17T08:17:00.332Z,11.50
2017-09-17T08:19:27.199Z,12.47
2017-09-17T08:21:54.966Z,12.20
2017-09-17T08:24:21.888Z,13.33
2017-09-17T08:26:48.754Z,12.67
2017-09-17T08:29:27.572Z,12.67
2017-09-17T08:31:55.446Z,15.43
2017-09-17T08:34:22.334Z,12.87
2017-09-17T08:36:49.264Z,12.20
2017-09-17T08:39:16.125Z,13.00
2017-09-17T08:41:43.033Z,11.10
2017-09-17T08:44:10.754Z,13.50
2017-09-17T08:46:37.705Z,11.67
2017-09-17T08:49:04.580Z,11.40
2017-09-17T08:51:31.512Z,12.30
2017-09-17T08:53:58.474Z,10.37
2017-09-17T08:56:26.138Z,12.63
2017-09-17T08:58:53.125Z,11.10
2017-09-17T09:01:20.199Z,12.50
2017-09-17T09:03:47.065Z,11.87
2017-09-17T09:06:14.085Z,10.20
2017-09-17T09:08:41.100Z,10.80
2017-09-17T09:11:08.052Z,10.73
2017-09-17T09:13:34.932Z,10.00
2017-09-17T09:16:01.804Z,11.13
2017-09-17T09:18:28.757Z,10.23
2017-09-17T09:20:55.645Z,9.00
2017-09-17T09:23:22.590Z,10.13
2017-09-17T09:25:49.499Z,8.30
2017-09-17T09:28:16.397Z,7.57
2017-09-17T09:30:43.336Z,9.07
2017-09-17T09:33:10.217Z,8.47
2017-09-17T09:35:37.173Z,7.17
2017-09-17T09:38:04.132Z,8.40
2017-09-17T09:40:31.765Z,7.30
2017-09-17T09:42:58.723Z,7.60
2017-09-17T09:45:25.697Z,9.23
2017-09-17T09:47:53.336Z,9.13
2017-09-17T09:50:20.344Z,8.80
2017-09-17T09:52:47.217Z,10.70
2017-09-17T09:55:14.143Z,10.47
2017-09-17T09:57:41.141Z,9.73
2017-09-17T10:00:08.888Z,9.03
2017-09-17T10:02:35.832Z,10.07
2017-09-17T10:05:02.729Z,8.07
2017-09-17T10:07:32.418Z,8.43
2017-09-17T10:09:59.344Z,7.00
2017-09-17T10:12:30.890Z,9.40
2017-09-17T10:14:59.001Z,7.83
2017-09-17T10:17:25.854Z,6.37
2017-09-17T10:19:52.817Z,6.27
2017-09-17T10:22:21.275Z,7.10
2017-09-17T10:24:54.203Z,6.47
2017-09-17T10:27:21.140Z,6.50
2017-09-17T10:29:48.007Z,6.33
2017-09-17T10:35:03.262Z,7.23
2017-09-17T10:37:42.646Z,6.27
2017-09-17T10:40:23.697Z,4.67
2017-09-17T10:43:08.074Z,4.80
2017-09-17T10:45:35.890Z,4.40
2017-09-17T10:48:20.341Z,5.97
2017-09-17T10:51:03.714Z,3.83
2017-09-17T10:53:41.278Z,4.80
2017-09-17T10:56:14.324Z,4.40
2017-09-17T10:58:51.563Z,4.73
2017-09-17T11:01:25.820Z,4.83
2017-09-17T11:03:53.516Z,4.63
2017-09-17T11:06:20.453Z,5.43
2017-09-17T11:08:48.051Z,5.77
2017-09-17T11:11:18.055Z,4.20
2017-09-17T11:13:46.478Z,5.00
2017-09-17T11:16:15.187Z,4.53
2017-09-17T11:18:44.424Z,5.10
2017-09-17T11:21:12.456Z,6.13
2017-09-17T11:23:40.180Z,5.87
2017-09-17T11:26:07.134Z,6.80
2017-09-17T11:28:43.853Z,6.73
2017-09-17T11:31:10.924Z,6.80
2017-09-17T11:33:37.859Z,8.83
2017-09-17T11:36:06.890Z,7.63
2017-09-17T11:38:35.525Z,7.40
2017-09-17T11:41:02.501Z,7.73
2017-09-17T11:43:29.751Z,8.13
2017-09-17T11:45:56.795Z,7.13
2017-09-17T11:48:27.107Z,6.60
2017-09-17T11:50:54.179Z,7.80
2017-09-17T11:53:21.056Z,9.07
2017-09-17T11:55:48.042Z,9.00
2017-09-17T11:58:15.230Z,7.57
2017-09-17T12:00:42.207Z,7.37
2017-09-17T12:03:09.173Z,6.70
2017-09-17T12:05:36.048Z,8.50
2017-09-17T12:08:03.025Z,6.50
2017-09-17T12:10:30.001Z,5.30
2017-09-17T12:12:56.957Z,4.70
2017-09-17T12:15:24.041Z,4.50
2017-09-17T12:17:51.092Z,4.93
2017-09-17T12:20:18.026Z,5.70
2017-09-17T12:22:45.946Z,4.63
2017-09-17T12:25:23.379Z,3.70
2017-09-17T12:27:50.401Z,3.87
2017-09-17T12:30:17.295Z,3.77
2017-09-17T12:32:44.936Z,4.37
2017-09-17T12:35:12.639Z,3.70
2017-09-17T12:37:39.595Z,5.30
2017-09-17T12:40:06.579Z,4.03
2017-09-17T12:42:33.556Z,4.53
2017-09-17T12:45:01.261Z,3.93
2017-09-17T12:47:28.257Z,3.70
2017-09-17T12:49:56.027Z,2.60
2017-09-17T12:52:22.937Z,4.03
2017-09-17T12:54:49.919Z,2.63
2017-09-17T12:57:17.584Z,2.73
2017-09-17T12:59:45.330Z,2.40
2017-09-17T13:02:12.204Z,2.40
2017-09-17T13:04:39.940Z,2.03
2017-09-17T13:07:07.026Z,2.33
2017-09-17T13:09:33.938Z,2.70
2017-09-17T13:12:01.672Z,2.50
2017-09-17T13:14:28.628Z,2.53
2017-09-17T13:16:55.655Z,2.27
2017-09-17T13:19:22.640Z,2.87
2017-09-17T13:21:49.573Z,2.00
2017-09-17T13:24:16.560Z,3.20
2017-09-17T13:26:44.178Z,2.83
2017-09-17T13:29:11.999Z,2.53
2017-09-17T13:31:41.747Z,2.97
2017-09-17T13:34:08.661Z,2.63
2017-09-17T13:36:35.608Z,2.33
2017-09-17T13:39:02.753Z,2.87
2017-09-17T13:41:29.787Z,3.10
2017-09-17T13:43:57.638Z,2.80
2017-09-17T13:46:24.664Z,2.80
2017-09-17T13:48:51.753Z,2.33
2017-09-17T13:51:19.485Z,2.47
2017-09-17T13:53:46.514Z,2.90
2017-09-17T13:56:13.493Z,3.37
2017-09-17T13:58:40.533Z,2.10
2017-09-17T14:01:22.410Z,2.37
2017-09-17T14:03:52.200Z,2.10
2017-09-17T14:06:19.149Z,3.17
2017-09-17T14:08:53.866Z,2.50
2017-09-17T14:11:23.637Z,3.07
2017-09-17T14:13:51.474Z,2.40
2017-09-17T14:16:18.434Z,2.47
2017-09-17T14:18:45.513Z,2.57
2017-09-17T14:21:15.244Z,2.43
2017-09-17T14:23:43.089Z,2.10
2017-09-17T14:26:13.441Z,2.53
2017-09-17T14:28:40.489Z,3.87
2017-09-17T14:31:10.501Z,2.70
2017-09-17T14:33:39.527Z,2.50
2017-09-17T14:36:06.482Z,2.53
2017-09-17T14:38:36.251Z,2.43
2017-09-17T14:41:07.412Z,1.83
2017-09-17T14:43:34.552Z,2.37
2017-09-17T14:46:05.104Z,2.53
2017-09-17T14:48:35.946Z,2.53
2017-09-17T14:51:05.092Z,2.33
2017-09-17T14:53:37.121Z,2.07
2017-09-17T14:56:05.119Z,2.37
2017-09-17T14:58:32.105Z,3.10
2017-09-17T15:00:59.061Z,2.50
2017-09-17T15:03:26.037Z,2.27
2017-09-17T15:05:54.668Z,2.10
2017-09-17T15:08:27.066Z,2.50
2017-09-17T15:10:55.629Z,2.80
2017-09-17T15:13:23.533Z,2.20
2017-09-17T15:15:51.756Z,2.50
2017-09-17T15:18:23.004Z,2.93
2017-09-17T15:20:51.278Z,2.40
2017-09-17T15:23:21.767Z,2.60
2017-09-17T15:25:51.764Z,3.40
2017-09-17T15:28:20.955Z,2.90
2017-09-17T15:30:48.665Z,2.70
2017-09-17T15:33:17.003Z,1.90
2017-09-17T15:35:44.658Z,2.10
2017-09-17T15:38:14.807Z,2.00
2017-09-17T15:40:42.544Z,1.70
2017-09-17T15:43:11.304Z,2.30
2017-09-17T15:45:44.192Z,2.10
2017-09-17T15:48:12.677Z,2.43
2017-09-17T15:50:43.020Z,2.07
2017-09-17T15:53:11.816Z,2.73
2017-09-17T15:55:40.773Z,1.83
2017-09-17T15:58:07.901Z,2.50
2017-09-17T16:00:34.835Z,2.87
2017-09-17T16:03:01.906Z,2.53
2017-09-17T16:05:32.088Z,1.80
2017-09-17T16:07:59.080Z,1.63
2017-09-17T16:10:26.157Z,2.10
2017-09-17T16:12:53.919Z,1.87
2017-09-17T16:15:32.512Z,1.87
2017-09-17T16:17:59.972Z,1.60
2017-09-17T16:20:27.718Z,3.47
2017-09-17T16:22:58.610Z,2.80
2017-09-17T16:25:25.643Z,1.70
2017-09-17T16:27:52.635Z,1.60
2017-09-17T16:30:19.600Z,2.53
2017-09-17T16:32:46.570Z,2.03
2017-09-17T16:35:13.559Z,2.50
2017-09-17T16:37:41.241Z,2.40
2017-09-17T16:40:08.310Z,2.33
2017-09-17T16:42:36.152Z,2.43
2017-09-17T16:45:03.121Z,4.53
2017-09-17T16:47:30.188Z,6.20
2017-09-17T16:49:57.344Z,10.03
2017-09-17T16:52:24.546Z,5.90
2017-09-17T16:54:53.153Z,2.83
2017-09-17T16:57:36.612Z,3.63
2017-09-17T17:00:11.802Z,2.90
2017-09-17T17:02:39.691Z,3.10
2017-09-17T17:05:20.668Z,2.87
2017-09-17T17:08:01.287Z,4.00
2017-09-17T17:10:40.986Z,3.80
2017-09-17T17:13:09.168Z,2.90
2017-09-17T17:15:50.976Z,3.53
2017-09-17T17:18:33.905Z,3.73
2017-09-17T17:21:14.679Z,4.60
2017-09-17T17:23:56.666Z,3.37
2017-09-17T17:26:38.492Z,2.90
2017-09-17T17:29:20.370Z,4.40
2017-09-17T17:31:59.409Z,22.93
2017-09-17T17:34:42.399Z,10.17
2017-09-17T17:37:25.001Z,4.57
2017-09-17T17:39:52.898Z,4.00
2017-09-17T17:42:19.845Z,3.80
2017-09-17T17:44:46.917Z,3.70
2017-09-17T17:47:14.696Z,4.37
2017-09-17T17:49:41.772Z,6.03
2017-09-17T17:52:08.855Z,7.63
2017-09-17T17:54:35.813Z,6.00
2017-09-17T17:57:02.745Z,6.23
2017-09-17T17:59:29.741Z,7.53
2017-09-17T18:01:56.703Z,12.60
2017-09-17T18:04:23.695Z,6.77
2017-09-17T18:06:50.696Z,6.40
2017-09-17T18:09:18.850Z,6.03
2017-09-17T18:11:45.878Z,4.83
2017-09-17T18:14:12.786Z,4.30
2017-09-17T18:16:39.770Z,4.10
2017-09-17T18:19:06.827Z,5.13
2017-09-17T18:21:35.587Z,4.00
2017-09-17T18:24:03.208Z,6.50
2017-09-17T18:26:31.146Z,7.70
2017-09-17T18:28:58.930Z,6.10
2017-09-17T18:31:26.128Z,4.27
2017-09-17T18:33:53.207Z,4.40
2017-09-17T18:36:20.180Z,3.80
2017-09-17T18:38:47.177Z,2.63
2017-09-17T18:41:14.091Z,3.20
2017-09-17T18:43:41.056Z,3.37
2017-09-17T18:46:07.963Z,5.93
2017-09-17T18:48:35.622Z,2.93
2017-09-17T18:51:09.314Z,3.73
2017-09-17T18:53:36.209Z,6.33
2017-09-17T18:56:03.209Z,3.10
2017-09-17T18:58:30.909Z,3.23
2017-09-17T19:00:57.864Z,2.80
2017-09-17T19:03:24.802Z,3.17
2017-09-17T19:05:52.607Z,2.93
2017-09-17T19:08:19.733Z,7.77
2017-09-17T19:10:47.860Z,2.73
2017-09-17T19:13:16.532Z,3.20
2017-09-17T19:15:44.309Z,3.40
2017-09-17T19:18:11.334Z,4.00
2017-09-17T19:20:40.287Z,5.27
2017-09-17T19:23:07.240Z,3.37
2017-09-17T19:25:48.087Z,3.80
2017-09-17T19:28:24.202Z,2.37
2017-09-17T19:30:51.143Z,3.40
2017-09-17T19:33:20.337Z,2.00
2017-09-17T19:35:47.432Z,2.60
2017-09-17T19:38:14.331Z,5.80
2017-09-17T19:40:41.350Z,15.87
2017-09-17T19:43:08.289Z,15.87
2017-09-17T19:45:35.241Z,8.30
2017-09-17T19:48:02.964Z,6.83
2017-09-17T19:50:33.055Z,5.33
2017-09-17T19:53:00.024Z,7.60
2017-09-17T19:55:26.900Z,8.03
2017-09-17T19:57:59.264Z,7.10
2017-09-17T20:00:26.246Z,7.07
2017-09-17T20:02:53.128Z,9.03
2017-09-17T20:05:20.079Z,7.57
2017-09-17T20:07:49.477Z,6.90
2017-09-17T20:10:21.415Z,6.20
2017-09-17T20:12:48.303Z,5.40
2017-09-17T20:15:22.880Z,6.80
2017-09-17T20:18:01.488Z,4.43
2017-09-17T20:20:36.213Z,4.03
2017-09-17T20:23:15.944Z,3.43
2017-09-17T20:25:56.858Z,4.80
2017-09-17T20:28:25.999Z,4.83
2017-09-17T20:30:52.941Z,4.90
2017-09-17T20:33:19.949Z,4.37
2017-09-17T20:35:46.852Z,5.17
2017-09-17T20:38:13.884Z,6.73
2017-09-17T20:40:40.952Z,4.43
2017-09-17T20:43:07.933Z,4.60
2017-09-17T20:45:35.021Z,3.90
2017-09-17T20:48:03.435Z,4.03
2017-09-17T20:50:30.394Z,3.00
2017-09-17T20:52:58.036Z,3.20
2017-09-17T20:55:25.739Z,2.83
2017-09-17T20:57:52.732Z,3.20
2017-09-17T21:00:19.607Z,3.73
2017-09-17T21:02:47.250Z,3.33
2017-09-17T21:05:14.255Z,4.27
2017-09-17T21:07:41.168Z,4.90
2017-09-17T21:10:08.147Z,3.23
2017-09-17T21:12:35.088Z,4.00
2017-09-17T21:15:02.065Z,2.80
2017-09-17T21:20:04.796Z,3.10
2017-09-17T21:22:31.690Z,3.90
2017-09-17T21:24:58.570Z,3.40
2017-09-17T21:27:25.642Z,3.10
2017-09-17T21:29:52.532Z,4.90
2017-09-17T21:32:19.479Z,3.07
2017-09-17T21:34:46.372Z,3.17
2017-09-17T21:37:14.075Z,4.07
2017-09-17T21:39:41.030Z,5.17
2017-09-17T21:42:07.903Z,5.00
2017-09-17T21:44:34.901Z,4.03
2017-09-17T21:47:01.803Z,3.20
2017-09-17T21:49:28.733Z,4.00
2017-09-17T21:51:55.696Z,3.87
2017-09-17T21:54:22.632Z,4.17
2017-09-17T21:56:49.536Z,3.50
2017-09-17T21:59:16.548Z,6.13
2017-09-17T22:01:43.474Z,3.80
2017-09-17T22:04:10.449Z,2.90
2017-09-17T22:06:38.136Z,2.80
2017-09-17T22:09:05.054Z,3.30
2017-09-17T22:11:32.020Z,4.67
2017-09-17T22:13:58.920Z,3.90
2017-09-17T22:16:25.814Z,3.93
2017-09-17T22:18:52.774Z,4.03
2017-09-17T22:21:19.736Z,14.20
2017-09-17T22:23:46.689Z,3.93
2017-09-17T22:26:13.636Z,5.20
2017-09-17T22:28:40.544Z,4.90
2017-09-17T22:31:07.501Z,5.50
2017-09-17T22:33:34.499Z,3.70
2017-09-17T22:36:01.476Z,4.47
2017-09-17T22:38:29.218Z,3.63
2017-09-17T22:40:56.113Z,3.67
2017-09-17T22:43:23.039Z,4.63
2017-09-17T22:45:50.001Z,3.73
2017-09-17T22:48:16.888Z,4.77
2017-09-17T22:50:43.852Z,4.27
2017-09-17T22:53:10.822Z,4.40
2017-09-17T22:55:37.728Z,4.10
2017-09-17T22:58:04.710Z,4.00
2017-09-17T23:00:32.354Z,4.40
2017-09-17T23:02:59.251Z,3.70
2017-09-17T23:05:26.221Z,3.97
2017-09-17T23:07:53.160Z,4.27
2017-09-17T23:10:20.140Z,3.87
2017-09-17T23:12:47.102Z,3.53
2017-09-17T23:15:14.966Z,5.63
2017-09-17T23:17:42.791Z,3.67
2017-09-17T23:20:09.656Z,4.30
2017-09-17T23:22:36.521Z,3.67
2017-09-17T23:25:03.493Z,3.40
2017-09-17T23:27:30.378Z,4.77
2017-09-17T23:29:57.396Z,4.13
2017-09-17T23:32:24.266Z,5.13
2017-09-17T23:34:51.215Z,3.70
2017-09-17T23:37:18.226Z,4.70
2017-09-17T23:39:45.090Z,3.70
2017-09-17T23:42:12.353Z,3.77
2017-09-17T23:44:39.228Z,4.07
2017-09-17T23:47:06.204Z,4.90
2017-09-17T23:49:35.725Z,3.63
2017-09-17T23:52:02.649Z,3.27
2017-09-17T23:54:30.363Z,3.40
2017-09-17T23:56:57.271Z,4.93
2017-09-17T23:59:24.172Z,3.83
